»·PEaware :: N172TT KSNA-KVNY

N172TT :: KSNA-KVNY

FLIGHT INFORMATION

Flight Status: Arrived
Operator: Privately registered:
United States
More flights under this callsign
Pilot: Thomas T. (19955)
Aircraft: CESSNA 172 SKYHAWK
(C172)
More flights by this aircraft type
Origin: KSNA John Wayne-Orange Co
United States
Destination: KVNY Van Nuys
United States
More flights between these airports :: More routes between these airports
Route: +SLI V23 POPPR SMO125R SMO SMO317R CANOG
File this flight plan on PilotEdge
Remarks: IFR TRAINING FLIGHT
Altitude:
(Current/Filed)
4,000ft
Speed:
(Current/Filed)
118kts
Departed: 09-Oct-18 02:06 PM
Arrived: 09-Oct-18 03:06 PM
Distance/Time
Traveled:
45nm/1:00
Distance/Time
To Go:
Arrived

Flight Plot

Page will automatically refresh every two minutes.


Map Options




Map Legend


Flown Route
Filed Route
Departure Airport
Arrival Airport
Navaid (VOR, NDB)
Fix

Horizontal Profiles

Position Reports

Time Latitude Longitude Heading Altitude Ground
Speed
09-Oct-18 13:21 33.676080 -117.870909 219 60ft 0kts
09-Oct-18 13:22 33.676080 -117.870909 219 60ft 0kts
09-Oct-18 13:23 33.676080 -117.870909 219 60ft 0kts
09-Oct-18 13:24 33.676080 -117.870909 219 60ft 0kts
09-Oct-18 13:25 33.676080 -117.870909 219 60ft 0kts
09-Oct-18 13:26 33.676080 -117.870909 219 60ft 0kts
09-Oct-18 13:27 33.676080 -117.870909 219 60ft 0kts
09-Oct-18 13:28 33.676080 -117.870909 219 60ft 0kts
09-Oct-18 13:29 33.676080 -117.870909 219 60ft 0kts
09-Oct-18 13:30 33.676080 -117.870909 219 60ft 0kts
09-Oct-18 13:31 33.676080 -117.870909 219 60ft 0kts
09-Oct-18 13:32 33.676080 -117.870909 219 60ft 0kts
09-Oct-18 13:33 33.676080 -117.870909 219 60ft 0kts
09-Oct-18 13:34 33.676080 -117.870909 219 60ft 0kts
09-Oct-18 13:35 33.676080 -117.870909 219 60ft 0kts
09-Oct-18 13:36 33.676080 -117.870909 219 60ft 0kts
09-Oct-18 13:37 33.676080 -117.870909 219 60ft 0kts
09-Oct-18 13:38 33.676080 -117.870909 219 60ft 0kts
09-Oct-18 13:39 33.676080 -117.870909 219 60ft 0kts
09-Oct-18 13:40 33.676080 -117.870909 219 60ft 0kts
09-Oct-18 13:41 33.676080 -117.870909 219 60ft 0kts
09-Oct-18 13:42 33.676080 -117.870909 219 60ft 0kts
09-Oct-18 13:43 33.676080 -117.870909 219 60ft 0kts
09-Oct-18 13:44 33.676080 -117.870909 219 60ft 0kts
09-Oct-18 13:45 33.676080 -117.870909 219 60ft 0kts
09-Oct-18 13:46 33.676080 -117.870909 219 60ft 0kts
09-Oct-18 13:47 33.676080 -117.870909 219 60ft 0kts
09-Oct-18 13:48 33.676080 -117.870909 219 60ft 0kts
09-Oct-18 13:49 33.676080 -117.870909 219 60ft 0kts
09-Oct-18 13:50 33.676080 -117.870909 219 60ft 0kts
09-Oct-18 13:51 33.676080 -117.870909 219 60ft 0kts
09-Oct-18 13:52 33.676080 -117.870909 219 60ft 0kts
09-Oct-18 13:53 33.676080 -117.870909 219 60ft 0kts
09-Oct-18 13:54 33.676080 -117.870909 219 60ft 0kts
09-Oct-18 13:55 33.676080 -117.870909 219 60ft 0kts
09-Oct-18 13:56 33.676080 -117.870909 219 60ft 0kts
09-Oct-18 13:57 33.676080 -117.870909 219 60ft 0kts
09-Oct-18 13:58 33.676080 -117.870909 219 60ft 0kts
09-Oct-18 13:59 33.676080 -117.870909 219 60ft 0kts
09-Oct-18 14:00 33.677393 -117.869253 26 60ft 20kts
09-Oct-18 14:01 33.681209 -117.866776 82 60ft 0kts
09-Oct-18 14:02 33.681209 -117.866777 82 60ft 0kts
09-Oct-18 14:03 33.681209 -117.866777 82 60ft 0kts
09-Oct-18 14:04 33.681210 -117.866736 91 60ft 0kts
09-Oct-18 14:05 33.681210 -117.866736 91 60ft 0kts
09-Oct-18 14:06 33.681210 -117.866734 92 60ft 0kts
09-Oct-18 14:07 33.680799 -117.865710 167 60ft 12kts
09-Oct-18 14:08 33.672666 -117.871105 208 290ft 72kts
09-Oct-18 14:09 33.655754 -117.891610 230 901ft 96kts
09-Oct-18 14:10 33.640715 -117.916515 230 1594ft 84kts
09-Oct-18 14:11 33.626865 -117.939655 230 1991ft 98kts
09-Oct-18 14:12 33.613080 -117.961989 227 1994ft 97kts
09-Oct-18 14:13 33.593645 -117.991524 229 1994ft 96kts
09-Oct-18 14:14 33.579930 -118.012442 229 1995ft 95kts
09-Oct-18 14:15 33.560691 -118.041699 229 1994ft 96kts
09-Oct-18 14:16 33.547019 -118.062576 228 1996ft 95kts
09-Oct-18 14:17 33.528029 -118.091719 229 2000ft 96kts
09-Oct-18 14:18 33.514302 -118.112747 228 2000ft 96kts
09-Oct-18 14:19 33.515398 -118.138404 345 2194ft 110kts
09-Oct-18 14:20 33.546795 -118.137095 359 2694ft 114kts
09-Oct-18 14:21 33.577801 -118.135216 358 3191ft 110kts
09-Oct-18 14:22 33.604583 -118.149537 329 3691ft 105kts
09-Oct-18 14:23 33.631287 -118.165286 330 3974ft 113kts
09-Oct-18 14:24 33.659623 -118.181627 331 3973ft 113kts
09-Oct-18 14:25 33.687725 -118.197844 331 3973ft 112kts
09-Oct-18 14:26 33.714947 -118.213566 331 3973ft 112kts
09-Oct-18 14:27 33.741719 -118.229038 331 3972ft 112kts
09-Oct-18 14:28 33.767480 -118.243992 331 3972ft 112kts
09-Oct-18 14:29 33.794234 -118.259760 331 3972ft 112kts
09-Oct-18 14:30 33.822222 -118.276032 331 3972ft 112kts
09-Oct-18 14:31 33.848941 -118.294167 317 3972ft 110kts
09-Oct-18 14:32 33.872077 -118.317328 317 3971ft 109kts
09-Oct-18 14:33 33.895254 -118.340579 316 3969ft 108kts
09-Oct-18 14:34 33.918200 -118.363619 316 3980ft 107kts
09-Oct-18 14:35 33.941108 -118.386638 316 3977ft 107kts
09-Oct-18 14:36 33.964004 -118.409659 316 3974ft 108kts
09-Oct-18 14:37 33.987015 -118.432811 316 3972ft 108kts
09-Oct-18 14:38 34.010041 -118.455931 318 3969ft 108kts
09-Oct-18 14:39 34.030338 -118.482286 309 3967ft 107kts
09-Oct-18 14:40 34.050353 -118.508824 309 3963ft 107kts
09-Oct-18 14:41 34.073699 -118.539831 309 3959ft 107kts
09-Oct-18 14:42 34.090182 -118.561749 309 3955ft 107kts
09-Oct-18 14:43 34.109307 -118.586810 315 3995ft 104kts
09-Oct-18 14:44 34.135532 -118.591987 351 4476ft 101kts
09-Oct-18 14:45 34.165336 -118.595511 351 4953ft 113kts
09-Oct-18 14:46 34.199289 -118.599948 351 4952ft 127kts
09-Oct-18 14:47 34.234563 -118.604884 351 4947ft 128kts
09-Oct-18 14:48 34.269853 -118.610023 351 4941ft 127kts
09-Oct-18 14:49 34.304965 -118.615086 351 4936ft 127kts
09-Oct-18 14:50 34.340168 -118.620107 351 4932ft 127kts
09-Oct-18 14:51 34.375167 -118.625043 351 4927ft 127kts
09-Oct-18 14:52 34.410229 -118.629934 351 4923ft 127kts
09-Oct-18 14:53 34.444652 -118.634657 351 4917ft 120kts
09-Oct-18 14:54 34.476437 -118.638026 12 4906ft 114kts
09-Oct-18 14:55 34.484403 -118.604996 93 4894ft 111kts
09-Oct-18 14:56 34.484133 -118.568566 93 4971ft 105kts
09-Oct-18 14:57 34.475549 -118.537221 152 4964ft 104kts
09-Oct-18 14:58 34.450009 -118.521063 154 4961ft 104kts
09-Oct-18 14:59 34.422612 -118.512958 172 4956ft 103kts
09-Oct-18 15:00 34.394200 -118.509125 172 4954ft 103kts
09-Oct-18 15:01 34.366155 -118.505110 178 4755ft 106kts
09-Oct-18 15:02 34.335537 -118.502797 171 3970ft 112kts
09-Oct-18 15:03 34.305479 -118.498119 179 3142ft 108kts
09-Oct-18 15:04 34.276577 -118.496753 176 2418ft 101kts
09-Oct-18 15:05 34.252670 -118.494767 172 1810ft 76kts
09-Oct-18 15:06 34.233683 -118.492775 173 1293ft 60kts
09-Oct-18 15:07 34.216482 -118.490996 174 864ft 58kts
09-Oct-18 15:08 34.210202 -118.490909 249 806ft 0kts
09-Oct-18 15:09 34.209706 -118.491898 91 806ft 0kts
09-Oct-18 15:10 34.209706 -118.491898 91 806ft 0kts

Navigation Log

Ident Type
Flight plan parsing failed, navigation log unavailable